Chembulk Westport — V7RQ7 — position and weather

sailwx.info

Track history (hours):
 
Tides and Currents Weather Stations Pressure Air Temp Water Temp Dewpoint Dewpoint Depression Visibility Wind Speed Wind Dir Waves Ship Positions

Chembulk Westport

Last reported at 2018-Apr-20 19:03 UTC. Time now 2018-Apr-24 05:08 UTC.
Position N 32°42' E 127°58'.

Length 170 m; draft 9.9 m.

Type: Tanker. MMSI: 538006820.

Date/timePositionNaut miles runAvg speedWind from/ knotsBaromVisibWave heightAir tempDewpointWater temp
2018-Apr-20 19:03N 32°42' E 127°58'114.4
2018-Apr-20 19:00N 32°43' E 127°59'814.2
2018-Apr-20 18:24N 32°50' E 128°04'614.3
2018-Apr-20 18:00N 32°55' E 128°08'814.5
2018-Apr-20 17:29N 33°01' E 128°12'714.6
2018-Apr-20 17:00N 33°07' E 128°17'714.7
2018-Apr-20 16:30N 33°14' E 128°21'814.7
2018-Apr-20 15:59N 33°20' E 128°26'714.6
2018-Apr-20 15:30N 33°25' E 128°32'714.6
2018-Apr-20 15:00N 33°30' E 128°38'714.9
2018-Apr-20 14:30N 33°35' E 128°45'814.8
2018-Apr-20 13:59N 33°40' E 128°52'715.2
2018-Apr-20 13:30N 33°45' E 128°58'815.2
2018-Apr-20 13:00N 33°50' E 129°05'815.4
2018-Apr-20 12:30N 33°55' E 129°12'815.5
2018-Apr-20 12:00N 34°00' E 129°19'815.5
2018-Apr-20 11:30N 34°06' E 129°26'715.2
2018-Apr-20 11:00N 34°11' E 129°32'815.2
2018-Apr-20 10:30N 34°16' E 129°39'815.1
2018-Apr-20 10:00N 34°22' E 129°45'714.9
2018-Apr-20 09:30N 34°27' E 129°52'815.0
2018-Apr-20 09:00N 34°32' E 129°58'814.8
2018-Apr-20 08:30N 34°38' E 130°04'714.7
2018-Apr-20 08:00N 34°43' E 130°10'714.4
2018-Apr-20 07:30N 34°48' E 130°16'714.2
2018-Apr-20 07:00N 34°53' E 130°22'814.0
2018-Apr-20 06:28N 34°59' E 130°28'814.0
2018-Apr-20 05:52N 35°05' E 130°35'513.6
2018-Apr-20 05:28N 35°09' E 130°40'55514.2
2018-Apr-18 14:19N 41°03' E 139°44'614.4
2018-Apr-18 13:56N 41°06' E 139°50'614.5
2018-Apr-18 13:30N 41°09' E 139°57'714.5
2018-Apr-18 13:00N 41°14' E 140°04'714.0
2018-Apr-18 12:30N 41°19' E 140°11'612.8
2018-Apr-18 12:01N 41°21' E 140°19'612.4
2018-Apr-18 11:30N 41°25' E 140°25'612.4
2018-Apr-18 11:01N 41°29' E 140°32'713.6
2018-Apr-18 10:30N 41°32' E 140°40'612.1
2018-Apr-18 10:00N 41°36' E 140°47'611.8
2018-Apr-18 09:31N 41°37' E 140°54'611.5
2018-Apr-18 09:00N 41°39' E 141°01'814.3
2018-Apr-18 08:29N 41°39' E 141°11'714.6
2018-Apr-18 08:00N 41°39' E 141°21'713.7
2018-Apr-18 07:30N 41°39' E 141°30'  
Track history (hours):
 
Tides and Currents Weather Stations Pressure Air Temp Water Temp Dewpoint Dewpoint Depression Visibility Wind Speed Wind Dir Waves Ship Positions

Chembulk Westport

Last reported at 2018-Apr-20 19:03 UTC. Time now 2018-Apr-24 05:08 UTC.
Position N 32°42' E 127°58'.

Length 170 m; draft 9.9 m.

Type: Tanker. MMSI: 538006820.

Date/timePositionNaut miles runAvg speedWind from/ knotsBaromVisibWave heightAir tempDewpointWater temp
2018-Apr-20 19:03N 32°42' E 127°58'114.4
2018-Apr-20 19:00N 32°43' E 127°59'814.2
2018-Apr-20 18:24N 32°50' E 128°04'614.3
2018-Apr-20 18:00N 32°55' E 128°08'814.5
2018-Apr-20 17:29N 33°01' E 128°12'714.6
2018-Apr-20 17:00N 33°07' E 128°17'714.7
2018-Apr-20 16:30N 33°14' E 128°21'814.7
2018-Apr-20 15:59N 33°20' E 128°26'714.6
2018-Apr-20 15:30N 33°25' E 128°32'714.6
2018-Apr-20 15:00N 33°30' E 128°38'714.9
2018-Apr-20 14:30N 33°35' E 128°45'814.8
2018-Apr-20 13:59N 33°40' E 128°52'715.2
2018-Apr-20 13:30N 33°45' E 128°58'815.2
2018-Apr-20 13:00N 33°50' E 129°05'815.4
2018-Apr-20 12:30N 33°55' E 129°12'815.5
2018-Apr-20 12:00N 34°00' E 129°19'815.5
2018-Apr-20 11:30N 34°06' E 129°26'715.2
2018-Apr-20 11:00N 34°11' E 129°32'815.2
2018-Apr-20 10:30N 34°16' E 129°39'815.1
2018-Apr-20 10:00N 34°22' E 129°45'714.9
2018-Apr-20 09:30N 34°27' E 129°52'815.0
2018-Apr-20 09:00N 34°32' E 129°58'814.8
2018-Apr-20 08:30N 34°38' E 130°04'714.7
2018-Apr-20 08:00N 34°43' E 130°10'714.4
2018-Apr-20 07:30N 34°48' E 130°16'714.2
2018-Apr-20 07:00N 34°53' E 130°22'814.0
2018-Apr-20 06:28N 34°59' E 130°28'814.0
2018-Apr-20 05:52N 35°05' E 130°35'513.6
2018-Apr-20 05:28N 35°09' E 130°40'55514.2
2018-Apr-18 14:19N 41°03' E 139°44'614.4
2018-Apr-18 13:56N 41°06' E 139°50'614.5
2018-Apr-18 13:30N 41°09' E 139°57'714.5
2018-Apr-18 13:00N 41°14' E 140°04'714.0
2018-Apr-18 12:30N 41°19' E 140°11'612.8
2018-Apr-18 12:01N 41°21' E 140°19'612.4
2018-Apr-18 11:30N 41°25' E 140°25'612.4
2018-Apr-18 11:01N 41°29' E 140°32'713.6
2018-Apr-18 10:30N 41°32' E 140°40'612.1
2018-Apr-18 10:00N 41°36' E 140°47'611.8
2018-Apr-18 09:31N 41°37' E 140°54'611.5
2018-Apr-18 09:00N 41°39' E 141°01'814.3
2018-Apr-18 08:29N 41°39' E 141°11'714.6
2018-Apr-18 08:00N 41°39' E 141°21'713.7
2018-Apr-18 07:30N 41°39' E 141°30'  

Dump ship's entire track history